WetterOnline ( https://www.wetteronline.de )

Wetter aktuell Westerwald (in 500m)

Aktuelles Wetter: Bad Marienberg (555m)

6-stündlich | Neueste Meldungen
Ortszeit Temperatur Wetter
Sa, 18.05. 8:00 11.9° C bedeckt
Sa, 18.05. 2:00 10.6° C wolkenlos
Fr, 17.05. 20:00 13.8° C bedeckt
Fr, 17.05. 14:00 13.5° C bedeckt
Fr, 17.05. 8:00 11.0° C wolkig
Fr, 17.05. 2:00 11.8° C bedeckt
Do, 16.05. 20:00 13.7° C Sprühregen
Do, 16.05. 14:00 15.7° C wolkig
Ortszeit Temperatur Wetter
Sa, 18.05. 11:00 13.2° C bedeckt
Sa, 18.05. 10:50 13.2° C bedeckt
Sa, 18.05. 10:40 13.1° C bedeckt
Sa, 18.05. 10:30 13.3° C bedeckt
Sa, 18.05. 10:20 13.3° C bedeckt
Sa, 18.05. 10:10 13.2° C bedeckt
Sa, 18.05. 10:00 13.3° C bedeckt
Sa, 18.05. 9:30 13.0° C bewölkt
Sa, 18.05. 9:00 12.8° C bedeckt
Sa, 18.05. 8:30 12.2° C bedeckt
Sa, 18.05. 8:00 11.9° C bedeckt
Ortszeit Relative Feuchte Sichtweite
Sa, 18.05. 8:00 92% 26 km
Sa, 18.05. 2:00 92% >70 km
Fr, 17.05. 20:00 80% 55 km
Fr, 17.05. 14:00 81% 45 km
Fr, 17.05. 8:00 95% 18 km
Fr, 17.05. 2:00 92% 45 km
Do, 16.05. 20:00 88% 30 km
Do, 16.05. 14:00 69% 65 km
Ortszeit Relative Feuchte Sichtweite
Sa, 18.05. 11:00 84% >70 km
Sa, 18.05. 10:50 84% -
Sa, 18.05. 10:40 84% -
Sa, 18.05. 10:30 82% 55 km
Sa, 18.05. 10:20 82% -
Sa, 18.05. 10:10 84% -
Sa, 18.05. 10:00 83% 55 km
Sa, 18.05. 9:30 84% 60 km
Sa, 18.05. 9:00 85% 50 km
Sa, 18.05. 8:30 88% 35 km
Sa, 18.05. 8:00 92% 26 km
Ortszeit Niederschlagsmenge Niederschlagsart
Sa, 18.05. 8:00 0.1 l/m2 in 12 Std. -
Sa, 18.05. 2:00 0.1 l/m2 in 6 Std. Regen
Fr, 17.05. 20:00 0.1 l/m2 in 12 Std. Sprühregen
Fr, 17.05. 14:00 0.1 l/m2 in 6 Std. Regen
Fr, 17.05. 8:00 3 l/m2 in 12 Std. Regen
Fr, 17.05. 2:00 2 l/m2 in 6 Std. Regen
Do, 16.05. 20:00 0.2 l/m2 in 12 Std. Regen
Do, 16.05. 14:00 0.0 l/m2 in 6 Std. -
Ortszeit Niederschlagsmenge Niederschlagsart
Sa, 18.05. 11:00 <0.05 l/m2 in 1 Std. Regen
Sa, 18.05. 10:50 keine Meldung -
Sa, 18.05. 10:40 keine Meldung -
Sa, 18.05. 10:30 <0.05 l/m2 in 30 Min Schnee
Sa, 18.05. 10:20 keine Meldung -
Sa, 18.05. 10:10 keine Meldung -
Sa, 18.05. 10:00 0.0 l/m2 in 1 Std. -
Sa, 18.05. 9:30 0.0 l/m2 in 30 Min -
Sa, 18.05. 9:00 0.0 l/m2 in 1 Std. -
Sa, 18.05. 8:30 0.0 l/m2 in 30 Min -
Sa, 18.05. 8:00 0.0 l/m2 in 1 Std. -
Ortszeit Stärke Spitze Richtung
km/h Bft. km/h Grad Sektor
Sa, 18.05. 8:00 4 1 11 290° W
Sa, 18.05. 2:00 9 2 19 50° NO
Fr, 17.05. 20:00 7 2 29 10° N
Fr, 17.05. 14:00 14 3 25 40° NO
Fr, 17.05. 8:00 9 2 22 340° N
Fr, 17.05. 2:00 13 3 26 30° NO
Do, 16.05. 20:00 11 2 26 100° O
Do, 16.05. 14:00 13 3 30 140° SO
Ortszeit Stärke Spitze Richtung
km/h Bft. km/h Grad Sektor
Sa, 18.05. 11:00 4 1 7 10° N
Sa, 18.05. 10:50 4 1 - 10° N
Sa, 18.05. 10:40 2 1 - 10° N
Sa, 18.05. 10:30 4 1 7 290° W
Sa, 18.05. 10:20 4 1 - 290° W
Sa, 18.05. 10:10 4 1 - 300° NW
Sa, 18.05. 10:00 4 1 11 300° NW
Sa, 18.05. 9:30 4 1 11 280° W
Sa, 18.05. 9:00 6 1 7 240° SW
Sa, 18.05. 8:30 4 1 7 250° W
Sa, 18.05. 8:00 4 1 7 290° W
Ortszeit Untergrenze Bedeckung Gattung
total tief tief mittel hoch
Sa, 18.05. 8:00 120 m 8/8 8/8 - - -
Sa, 18.05. 2:00 - 0/8 0/8 - - -
Fr, 17.05. 20:00 2100 m 8/8 8/8 - - -
Fr, 17.05. 14:00 600 m 8/8 8/8 - - -
Fr, 17.05. 8:00 90 m 7/8 1/8 - - -
Fr, 17.05. 2:00 3000 m 8/8 8/8 - - -
Do, 16.05. 20:00 600 m 8/8 8/8 - - -
Do, 16.05. 14:00 2700 m 7/8 1/8 - - -
Ortszeit Bedeckungsgrad in Achtel und Wolkenuntergrenze
Sa, 18.05. 11:00 6(330m) 7(510m) 8(1440m)
Sa, 18.05. 10:50 6(330m) 7(510m) 8(1440m)
Sa, 18.05. 10:40 8
Sa, 18.05. 10:30 4(360m) 5(510m) 8(1380m)
Sa, 18.05. 10:20 4(360m) 5(510m) 8(1380m)
Sa, 18.05. 10:10 8
Sa, 18.05. 10:00 3(390m) 5(810m) 8(1380m)
Sa, 18.05. 9:30 6(360m) 7(1500m)
Sa, 18.05. 9:00 6(240m) 7(360m) 8(1500m)
Sa, 18.05. 8:30 3(360m) 8(1440m)
Sa, 18.05. 8:00 1(120m) 8(360m) 8(3000m)
Ortszeit Luftdruck NN (hPa) Tendenz (hPa in 3 Std.)
Sa, 18.05. 8:00 1010 + 0,9
Sa, 18.05. 2:00 1009 + 0,4
Fr, 17.05. 20:00 1006 + 0,3
Fr, 17.05. 14:00 1006 + 0,9
Fr, 17.05. 8:00 1005 - 0,1
Fr, 17.05. 2:00 1006 - 1,2
Do, 16.05. 20:00 1006 + 0,5
Do, 16.05. 14:00 1005 + 0,5
Ortszeit Luftdruck NN (hPa) Tendenz (hPa in 3 Std.)
Sa, 18.05. 11:00 1010 + 0,8
Sa, 18.05. 10:50 1010 keine Meldung
Sa, 18.05. 10:40 1010 keine Meldung
Sa, 18.05. 10:30 1010 + 0,8
Sa, 18.05. 10:20 1010 keine Meldung
Sa, 18.05. 10:10 1010 keine Meldung
Sa, 18.05. 10:00 1010 + 0,8
Sa, 18.05. 9:30 1010 + 0,8
Sa, 18.05. 9:00 1010 + 1,0
Sa, 18.05. 8:30 1010 + 1,0
Sa, 18.05. 8:00 1010 + 0,9
Ortszeit Schneehöhe (cm)
Sa, 18.05. 8:00 0
Sa, 18.05. 2:00 0
Fr, 17.05. 20:00 0
Fr, 17.05. 14:00 0
Fr, 17.05. 8:00 0
Fr, 17.05. 2:00 0
Do, 16.05. 20:00 0
Do, 16.05. 14:00 0
Ortszeit Schneehöhe (cm)
Sa, 18.05. 11:00 0
Sa, 18.05. 10:50 0
Sa, 18.05. 10:40 -
Sa, 18.05. 10:30 0
Sa, 18.05. 10:20 0
Sa, 18.05. 10:10 -
Sa, 18.05. 10:00 0
Sa, 18.05. 9:30 0
Sa, 18.05. 9:00 0
Sa, 18.05. 8:30 0
Sa, 18.05. 8:00 0
Link zu dieser Seite / Seite empfehlen

Das Wetter in ...